sensor_id;sensor_type;location;lat;lon;timestamp;pressure;altitude;pressure_sealevel;temperature;humidity
78562;BME280;68963;52.138;5.446;2023-07-16T00:01:56;100854.34;;;18.01;63.68
78562;BME280;68963;52.138;5.446;2023-07-16T00:04:23;100859.19;;;18.04;63.64
78562;BME280;68963;52.138;5.446;2023-07-16T00:06:50;100857.59;;;18.03;63.43
78562;BME280;68963;52.138;5.446;2023-07-16T00:09:16;100867.44;;;18.02;63.21
78562;BME280;68963;52.138;5.446;2023-07-16T00:11:43;100850.06;;;18.00;63.21
78562;BME280;68963;52.138;5.446;2023-07-16T00:14:10;100858.28;;;17.98;63.05
78562;BME280;68963;52.138;5.446;2023-07-16T00:16:38;100859.34;;;17.97;63.24
78562;BME280;68963;52.138;5.446;2023-07-16T00:19:05;100860.38;;;17.96;63.20
78562;BME280;68963;52.138;5.446;2023-07-16T00:21:31;100856.09;;;17.95;62.48
78562;BME280;68963;52.138;5.446;2023-07-16T00:23:58;100852.63;;;17.95;62.68
78562;BME280;68963;52.138;5.446;2023-07-16T00:26:25;100850.22;;;17.93;62.60
78562;BME280;68963;52.138;5.446;2023-07-16T00:28:51;100857.63;;;17.91;62.99
78562;BME280;68963;52.138;5.446;2023-07-16T00:31:18;100851.47;;;17.91;62.48
78562;BME280;68963;52.138;5.446;2023-07-16T00:33:45;100854.97;;;17.91;62.80
78562;BME280;68963;52.138;5.446;2023-07-16T00:36:12;100858.88;;;17.89;62.31
78562;BME280;68963;52.138;5.446;2023-07-16T00:38:39;100862.03;;;17.85;62.56
78562;BME280;68963;52.138;5.446;2023-07-16T00:41:07;100866.00;;;17.83;62.53
78562;BME280;68963;52.138;5.446;2023-07-16T00:43:34;100868.06;;;17.81;62.70
78562;BME280;68963;52.138;5.446;2023-07-16T00:46:00;100867.59;;;17.72;63.53
78562;BME280;68963;52.138;5.446;2023-07-16T00:48:28;100864.59;;;17.69;63.94
78562;BME280;68963;52.138;5.446;2023-07-16T00:50:55;100867.97;;;17.64;63.72
78562;BME280;68963;52.138;5.446;2023-07-16T00:53:22;100883.94;;;17.64;63.84
78562;BME280;68963;52.138;5.446;2023-07-16T00:55:49;100878.84;;;17.62;63.84
78562;BME280;68963;52.138;5.446;2023-07-16T00:58:16;100872.13;;;17.60;64.11
78562;BME280;68963;52.138;5.446;2023-07-16T01:00:42;100875.00;;;17.58;64.04
78562;BME280;68963;52.138;5.446;2023-07-16T01:03:11;100872.81;;;17.55;64.07
78562;BME280;68963;52.138;5.446;2023-07-16T01:05:47;100875.47;;;17.55;64.34
78562;BME280;68963;52.138;5.446;2023-07-16T01:08:21;100878.38;;;17.54;64.33
78562;BME280;68963;52.138;5.446;2023-07-16T01:10:49;100871.66;;;17.51;64.30
78562;BME280;68963;52.138;5.446;2023-07-16T01:13:16;100875.59;;;17.49;64.74
78562;BME280;68963;52.138;5.446;2023-07-16T01:15:42;100873.41;;;17.46;64.81
78562;BME280;68963;52.138;5.446;2023-07-16T01:18:09;100871.22;;;17.43;64.88
78562;BME280;68963;52.138;5.446;2023-07-16T01:20:36;100864.03;;;17.43;65.10
78562;BME280;68963;52.138;5.446;2023-07-16T01:30:50;100874.22;;;17.34;65.34
78562;BME280;68963;52.138;5.446;2023-07-16T01:33:19;100863.34;;;17.36;65.17
78562;BME280;68963;52.138;5.446;2023-07-16T01:35:48;100870.53;;;17.35;65.26
78562;BME280;68963;52.138;5.446;2023-07-16T01:38:16;100864.59;;;17.33;65.50
78562;BME280;68963;52.138;5.446;2023-07-16T01:40:45;100872.03;;;17.31;65.63
78562;BME280;68963;52.138;5.446;2023-07-16T01:43:11;100867.16;;;17.28;65.66
78562;BME280;68963;52.138;5.446;2023-07-16T01:45:38;100859.38;;;17.27;65.86
78562;BME280;68963;52.138;5.446;2023-07-16T01:48:35;100869.03;;;17.28;65.70
78562;BME280;68963;52.138;5.446;2023-07-16T01:51:04;100868.41;;;17.26;65.92
78562;BME280;68963;52.138;5.446;2023-07-16T01:53:31;100872.94;;;17.25;65.87
78562;BME280;68963;52.138;5.446;2023-07-16T01:56:01;100870.53;;;17.24;66.09
78562;BME280;68963;52.138;5.446;2023-07-16T01:58:28;100871.78;;;17.21;66.54
78562;BME280;68963;52.138;5.446;2023-07-16T02:00:55;100868.78;;;17.18;66.29
78562;BME280;68963;52.138;5.446;2023-07-16T02:03:22;100875.72;;;17.19;66.57
78562;BME280;68963;52.138;5.446;2023-07-16T02:05:49;100871.69;;;17.16;66.92
78562;BME280;68963;52.138;5.446;2023-07-16T02:08:16;100864.94;;;17.13;66.82
78562;BME280;68963;52.138;5.446;2023-07-16T02:10:44;100869.00;;;17.16;66.95
78562;BME280;68963;52.138;5.446;2023-07-16T02:13:11;100869.22;;;17.14;67.13
78562;BME280;68963;52.138;5.446;2023-07-16T02:15:38;100873.75;;;17.14;67.37
78562;BME280;68963;52.138;5.446;2023-07-16T02:18:05;100868.88;;;17.11;67.62
78562;BME280;68963;52.138;5.446;2023-07-16T02:20:32;100877.09;;;17.09;67.67
78562;BME280;68963;52.138;5.446;2023-07-16T02:22:58;100869.34;;;17.08;67.99
78562;BME280;68963;52.138;5.446;2023-07-16T02:25:25;100874.09;;;17.06;68.26
78562;BME280;68963;52.138;5.446;2023-07-16T02:27:52;100868.97;;;17.04;68.38
78562;BME280;68963;52.138;5.446;2023-07-16T02:30:18;100871.06;;;17.02;68.50
78562;BME280;68963;52.138;5.446;2023-07-16T02:32:45;100867.00;;;17.00;68.69
78562;BME280;68963;52.138;5.446;2023-07-16T02:35:13;100877.91;;;16.98;69.08
78562;BME280;68963;52.138;5.446;2023-07-16T02:37:39;100879.97;;;16.96;69.13
78562;BME280;68963;52.138;5.446;2023-07-16T02:40:07;100874.88;;;16.95;69.10
78562;BME280;68963;52.138;5.446;2023-07-16T02:42:34;100884.94;;;16.93;69.64
78562;BME280;68963;52.138;5.446;2023-07-16T02:45:00;100880.91;;;16.90;69.92
78562;BME280;68963;52.138;5.446;2023-07-16T02:47:27;100876.16;;;16.92;69.64
78562;BME280;68963;52.138;5.446;2023-07-16T02:49:53;100873.03;;;16.95;69.74
78562;BME280;68963;52.138;5.446;2023-07-16T02:52:21;100877.44;;;17.01;69.67
78562;BME280;68963;52.138;5.446;2023-07-16T02:54:47;100876.97;;;17.04;69.63
78562;BME280;68963;52.138;5.446;2023-07-16T02:57:14;100884.94;;;17.04;69.43
78562;BME280;68963;52.138;5.446;2023-07-16T02:59:41;100878.25;;;17.02;69.82
78562;BME280;68963;52.138;5.446;2023-07-16T03:02:07;100876.03;;;16.99;69.67
78562;BME280;68963;52.138;5.446;2023-07-16T03:04:34;100885.28;;;16.96;69.92
78562;BME280;68963;52.138;5.446;2023-07-16T03:07:00;100883.31;;;16.92;70.18
78562;BME280;68963;52.138;5.446;2023-07-16T03:09:27;100890.13;;;16.87;70.23
78562;BME280;68963;52.138;5.446;2023-07-16T03:11:53;100897.75;;;16.84;70.61
78562;BME280;68963;52.138;5.446;2023-07-16T03:14:20;100895.56;;;16.81;70.78
78562;BME280;68963;52.138;5.446;2023-07-16T03:16:46;100890.13;;;16.76;70.71
78562;BME280;68963;52.138;5.446;2023-07-16T03:19:13;100889.72;;;16.72;71.13
78562;BME280;68963;52.138;5.446;2023-07-16T03:21:40;100892.84;;;16.69;71.16
78562;BME280;68963;52.138;5.446;2023-07-16T03:24:06;100897.56;;;16.67;71.40
78562;BME280;68963;52.138;5.446;2023-07-16T03:26:33;100891.22;;;16.68;71.30
78562;BME280;68963;52.138;5.446;2023-07-16T03:28:59;100895.50;;;16.69;71.06
78562;BME280;68963;52.138;5.446;2023-07-16T03:31:26;100892.84;;;16.69;71.20
78562;BME280;68963;52.138;5.446;2023-07-16T03:33:53;100885.31;;;16.66;71.27
78562;BME280;68963;52.138;5.446;2023-07-16T03:36:19;100890.25;;;16.62;71.41
78562;BME280;68963;52.138;5.446;2023-07-16T03:38:46;100899.28;;;16.61;71.76
78562;BME280;68963;52.138;5.446;2023-07-16T03:41:12;100898.47;;;16.61;72.00
78562;BME280;68963;52.138;5.446;2023-07-16T03:43:39;100891.75;;;16.58;71.79
78562;BME280;68963;52.138;5.446;2023-07-16T03:46:06;100904.44;;;16.56;72.17
78562;BME280;68963;52.138;5.446;2023-07-16T03:48:35;100914.53;;;16.54;72.48
78562;BME280;68963;52.138;5.446;2023-07-16T03:51:02;100920.66;;;16.55;72.60
78562;BME280;68963;52.138;5.446;2023-07-16T03:53:28;100918.56;;;16.57;72.85
78562;BME280;68963;52.138;5.446;2023-07-16T03:55:55;100910.13;;;16.60;72.74
78562;BME280;68963;52.138;5.446;2023-07-16T03:58:22;100922.41;;;16.61;72.36
78562;BME280;68963;52.138;5.446;2023-07-16T04:00:50;100923.66;;;16.58;72.61
78562;BME280;68963;52.138;5.446;2023-07-16T04:03:17;100931.84;;;16.57;72.30
78562;BME280;68963;52.138;5.446;2023-07-16T04:05:43;100935.34;;;16.57;72.42
78562;BME280;68963;52.138;5.446;2023-07-16T04:08:10;100942.50;;;16.57;71.90
78562;BME280;68963;52.138;5.446;2023-07-16T04:10:36;100931.66;;;16.58;71.61
78562;BME280;68963;52.138;5.446;2023-07-16T04:13:03;100924.03;;;16.62;71.49
78562;BME280;68963;52.138;5.446;2023-07-16T04:15:30;100930.16;;;16.62;71.75
78562;BME280;68963;52.138;5.446;2023-07-16T04:17:56;100933.06;;;16.61;71.46
78562;BME280;68963;52.138;5.446;2023-07-16T04:20:23;100942.41;;;16.63;71.42
78562;BME280;68963;52.138;5.446;2023-07-16T04:22:50;100936.06;;;16.64;71.68
78562;BME280;68963;52.138;5.446;2023-07-16T04:25:17;100941.16;;;16.66;71.52
78562;BME280;68963;52.138;5.446;2023-07-16T04:27:43;100936.66;;;16.66;71.46
78562;BME280;68963;52.138;5.446;2023-07-16T04:30:10;100946.25;;;16.67;71.40
78562;BME280;68963;52.138;5.446;2023-07-16T04:32:37;100948.69;;;16.69;71.37
78562;BME280;68963;52.138;5.446;2023-07-16T04:35:04;100953.19;;;16.69;71.65
78562;BME280;68963;52.138;5.446;2023-07-16T04:37:30;100950.75;;;16.67;71.31
78562;BME280;68963;52.138;5.446;2023-07-16T04:39:57;100964.84;;;16.67;71.03
78562;BME280;68963;52.138;5.446;2023-07-16T04:42:24;100963.84;;;16.69;71.26
78562;BME280;68963;52.138;5.446;2023-07-16T04:44:50;100962.78;;;16.70;71.44
78562;BME280;68963;52.138;5.446;2023-07-16T04:47:17;100963.59;;;16.70;71.17
78562;BME280;68963;52.138;5.446;2023-07-16T04:49:43;100975.06;;;16.71;71.07
78562;BME280;68963;52.138;5.446;2023-07-16T04:52:10;100970.78;;;16.70;71.32
78562;BME280;68963;52.138;5.446;2023-07-16T04:54:37;100965.47;;;16.70;71.37
78562;BME280;68963;52.138;5.446;2023-07-16T04:57:06;100971.81;;;16.69;70.99
78562;BME280;68963;52.138;5.446;2023-07-16T04:59:33;100978.16;;;16.67;70.91
78562;BME280;68963;52.138;5.446;2023-07-16T05:02:01;100979.56;;;16.70;70.87
78562;BME280;68963;52.138;5.446;2023-07-16T05:04:28;100983.03;;;16.71;70.53
78562;BME280;68963;52.138;5.446;2023-07-16T05:06:55;100972.19;;;16.72;70.53
78562;BME280;68963;52.138;5.446;2023-07-16T05:09:21;100973.19;;;16.71;70.31
78562;BME280;68963;52.138;5.446;2023-07-16T05:11:48;100977.50;;;16.72;70.53
78562;BME280;68963;52.138;5.446;2023-07-16T05:14:15;100977.28;;;16.74;70.18
78562;BME280;68963;52.138;5.446;2023-07-16T05:16:41;100972.56;;;16.76;70.71
78562;BME280;68963;52.138;5.446;2023-07-16T05:19:08;100976.25;;;16.75;70.76
78562;BME280;68963;52.138;5.446;2023-07-16T05:21:34;100976.84;;;16.77;70.49
78562;BME280;68963;52.138;5.446;2023-07-16T05:24:01;100968.63;;;16.78;70.03
78562;BME280;68963;52.138;5.446;2023-07-16T05:26:28;100978.03;;;16.81;70.35
78562;BME280;68963;52.138;5.446;2023-07-16T05:28:55;100988.22;;;16.84;69.97
78562;BME280;68963;52.138;5.446;2023-07-16T05:31:21;100980.00;;;16.85;69.65
78562;BME280;68963;52.138;5.446;2023-07-16T05:33:48;100979.78;;;16.87;69.95
78562;BME280;68963;52.138;5.446;2023-07-16T05:36:14;100995.31;;;16.90;69.77
78562;BME280;68963;52.138;5.446;2023-07-16T05:38:41;100999.94;;;16.95;69.14
78562;BME280;68963;52.138;5.446;2023-07-16T05:41:08;101005.38;;;17.00;68.76
78562;BME280;68963;52.138;5.446;2023-07-16T05:43:34;101011.06;;;17.03;68.33
78562;BME280;68963;52.138;5.446;2023-07-16T05:46:01;101015.72;;;17.08;68.68
78562;BME280;68963;52.138;5.446;2023-07-16T05:48:28;101011.09;;;17.15;68.45
78562;BME280;68963;52.138;5.446;2023-07-16T05:50:54;101018.44;;;17.20;67.98
78562;BME280;68963;52.138;5.446;2023-07-16T05:53:21;101022.84;;;17.26;68.76
78562;BME280;68963;52.138;5.446;2023-07-16T05:55:47;101028.88;;;17.33;68.70
78562;BME280;68963;52.138;5.446;2023-07-16T05:58:16;101020.78;;;17.39;68.13
78562;BME280;68963;52.138;5.446;2023-07-16T06:00:42;101018.84;;;17.47;68.46
78562;BME280;68963;52.138;5.446;2023-07-16T06:03:09;101023.25;;;17.53;67.13
78562;BME280;68963;52.138;5.446;2023-07-16T06:05:36;101023.38;;;17.58;67.49
78562;BME280;68963;52.138;5.446;2023-07-16T06:08:03;101035.44;;;17.60;67.21
78562;BME280;68963;52.138;5.446;2023-07-16T06:10:30;101025.25;;;17.69;67.39
78562;BME280;68963;52.138;5.446;2023-07-16T06:12:59;101032.34;;;17.75;66.72
78562;BME280;68963;52.138;5.446;2023-07-16T06:15:26;101035.72;;;17.82;66.71
78562;BME280;68963;52.138;5.446;2023-07-16T06:17:52;101036.88;;;17.86;66.57
78562;BME280;68963;52.138;5.446;2023-07-16T06:20:19;101028.19;;;17.91;66.08
78562;BME280;68963;52.138;5.446;2023-07-16T06:22:46;101031.44;;;17.93;65.94
78562;BME280;68963;52.138;5.446;2023-07-16T06:25:12;101036.41;;;18.01;65.67
78562;BME280;68963;52.138;5.446;2023-07-16T06:27:39;101033.38;;;18.09;65.48
78562;BME280;68963;52.138;5.446;2023-07-16T06:30:06;101036.88;;;18.10;65.20
78562;BME280;68963;52.138;5.446;2023-07-16T06:32:33;101042.53;;;18.14;64.65
78562;BME280;68963;52.138;5.446;2023-07-16T06:35:02;101050.09;;;18.17;64.82
78562;BME280;68963;52.138;5.446;2023-07-16T06:37:29;101045.31;;;18.19;64.83
78562;BME280;68963;52.138;5.446;2023-07-16T06:39:58;101054.84;;;18.26;65.12
78562;BME280;68963;52.138;5.446;2023-07-16T06:42:25;101045.88;;;18.32;64.95
78562;BME280;68963;52.138;5.446;2023-07-16T06:44:51;101056.69;;;18.38;64.82
78562;BME280;68963;52.138;5.446;2023-07-16T06:47:18;101056.44;;;18.39;64.95
78562;BME280;68963;52.138;5.446;2023-07-16T06:49:45;101044.25;;;18.43;65.26
78562;BME280;68963;52.138;5.446;2023-07-16T06:52:22;101035.66;;;18.53;65.15
78562;BME280;68963;52.138;5.446;2023-07-16T06:54:49;101039.47;;;18.57;64.41
78562;BME280;68963;52.138;5.446;2023-07-16T06:57:15;101039.00;;;18.60;64.32
78562;BME280;68963;52.138;5.446;2023-07-16T06:59:45;101057.78;;;18.65;64.07
78562;BME280;68963;52.138;5.446;2023-07-16T07:02:12;101059.53;;;18.71;63.51
78562;BME280;68963;52.138;5.446;2023-07-16T07:04:38;101050.81;;;18.76;63.06
78562;BME280;68963;52.138;5.446;2023-07-16T07:07:06;101056.03;;;18.82;63.61
78562;BME280;68963;52.138;5.446;2023-07-16T07:09:32;101059.84;;;18.87;62.72
78562;BME280;68963;52.138;5.446;2023-07-16T07:11:59;101069.78;;;18.91;63.67
78562;BME280;68963;52.138;5.446;2023-07-16T07:14:26;101084.50;;;19.05;63.13
78562;BME280;68963;52.138;5.446;2023-07-16T07:16:52;101082.50;;;19.13;62.62
78562;BME280;68963;52.138;5.446;2023-07-16T07:19:19;101081.56;;;19.19;62.82
78562;BME280;68963;52.138;5.446;2023-07-16T07:21:46;101078.22;;;19.28;62.59
78562;BME280;68963;52.138;5.446;2023-07-16T07:24:12;101091.16;;;19.48;61.18
78562;BME280;68963;52.138;5.446;2023-07-16T07:26:39;101089.84;;;19.51;61.16
78562;BME280;68963;52.138;5.446;2023-07-16T07:29:06;101095.50;;;19.66;61.29
78562;BME280;68963;52.138;5.446;2023-07-16T07:31:32;101103.59;;;19.71;61.31
78562;BME280;68963;52.138;5.446;2023-07-16T07:33:59;101093.59;;;19.50;60.91
78562;BME280;68963;52.138;5.446;2023-07-16T07:36:27;101093.38;;;19.40;62.42
78562;BME280;68963;52.138;5.446;2023-07-16T07:38:53;101117.06;;;19.48;61.61
78562;BME280;68963;52.138;5.446;2023-07-16T07:41:20;101093.75;;;19.60;60.97
78562;BME280;68963;52.138;5.446;2023-07-16T07:43:46;101101.19;;;19.58;61.51
78562;BME280;68963;52.138;5.446;2023-07-16T07:46:13;101107.19;;;19.48;61.79
78562;BME280;68963;52.138;5.446;2023-07-16T07:48:40;101107.75;;;19.50;61.76
78562;BME280;68963;52.138;5.446;2023-07-16T07:51:07;101104.66;;;19.70;61.90
78562;BME280;68963;52.138;5.446;2023-07-16T07:53:33;101108.78;;;19.95;61.12
78562;BME280;68963;52.138;5.446;2023-07-16T07:56:00;101107.31;;;19.87;60.35
78562;BME280;68963;52.138;5.446;2023-07-16T07:58:26;101114.28;;;19.71;60.88
78562;BME280;68963;52.138;5.446;2023-07-16T08:00:53;101121.41;;;19.66;61.62
78562;BME280;68963;52.138;5.446;2023-07-16T08:03:20;101135.47;;;19.61;61.58
78562;BME280;68963;52.138;5.446;2023-07-16T08:05:50;101131.66;;;19.57;61.63
78562;BME280;68963;52.138;5.446;2023-07-16T08:08:16;101125.81;;;19.60;61.61
78562;BME280;68963;52.138;5.446;2023-07-16T08:10:43;101136.53;;;19.60;61.76
78562;BME280;68963;52.138;5.446;2023-07-16T08:13:12;101132.66;;;19.68;62.18
78562;BME280;68963;52.138;5.446;2023-07-16T08:15:39;101130.09;;;19.90;61.96
78562;BME280;68963;52.138;5.446;2023-07-16T08:18:05;101139.00;;;20.12;61.92
78562;BME280;68963;52.138;5.446;2023-07-16T08:20:32;101141.38;;;20.25;60.75
78562;BME280;68963;52.138;5.446;2023-07-16T08:22:58;101141.38;;;20.25;60.79
78562;BME280;68963;52.138;5.446;2023-07-16T08:25:25;101137.84;;;20.25;60.85
78562;BME280;68963;52.138;5.446;2023-07-16T08:27:53;101145.06;;;20.41;60.81
78562;BME280;68963;52.138;5.446;2023-07-16T08:30:20;101151.41;;;20.52;59.63
78562;BME280;68963;52.138;5.446;2023-07-16T08:32:46;101156.19;;;20.50;60.35
78562;BME280;68963;52.138;5.446;2023-07-16T08:35:13;101150.25;;;20.48;60.46
78562;BME280;68963;52.138;5.446;2023-07-16T08:37:43;101152.13;;;20.47;59.42
78562;BME280;68963;52.138;5.446;2023-07-16T08:40:11;101168.34;;;20.41;59.96
78562;BME280;68963;52.138;5.446;2023-07-16T08:42:39;101152.94;;;20.48;60.01
78562;BME280;68963;52.138;5.446;2023-07-16T08:45:10;101154.09;;;20.52;60.04
78562;BME280;68963;52.138;5.446;2023-07-16T08:47:37;101151.47;;;20.57;59.62
78562;BME280;68963;52.138;5.446;2023-07-16T08:50:04;101171.25;;;20.39;59.49
78562;BME280;68963;52.138;5.446;2023-07-16T08:52:31;101167.06;;;20.26;60.20
78562;BME280;68963;52.138;5.446;2023-07-16T08:54:58;101170.94;;;20.36;60.27
78562;BME280;68963;52.138;5.446;2023-07-16T08:57:25;101169.22;;;20.46;60.98
78562;BME280;68963;52.138;5.446;2023-07-16T08:59:52;101192.00;;;20.49;59.76
78562;BME280;68963;52.138;5.446;2023-07-16T09:02:20;101186.91;;;20.47;59.83
78562;BME280;68963;52.138;5.446;2023-07-16T09:04:48;101180.59;;;20.54;60.55
78562;BME280;68963;52.138;5.446;2023-07-16T09:07:15;101181.06;;;20.67;60.78
78562;BME280;68963;52.138;5.446;2023-07-16T09:09:42;101181.53;;;20.81;59.99
78562;BME280;68963;52.138;5.446;2023-07-16T09:12:12;101184.59;;;21.12;59.94
78562;BME280;68963;52.138;5.446;2023-07-16T09:14:42;101181.03;;;21.50;59.29
78562;BME280;68963;52.138;5.446;2023-07-16T09:17:08;101183.88;;;21.65;57.64
78562;BME280;68963;52.138;5.446;2023-07-16T09:19:36;101187.56;;;21.59;56.53
78562;BME280;68963;52.138;5.446;2023-07-16T09:22:03;101187.00;;;21.57;56.81
78562;BME280;68963;52.138;5.446;2023-07-16T09:24:29;101189.28;;;21.43;56.73
78562;BME280;68963;52.138;5.446;2023-07-16T09:26:59;101200.28;;;21.25;58.01
78562;BME280;68963;52.138;5.446;2023-07-16T09:29:28;101204.09;;;21.07;57.75
78562;BME280;68963;52.138;5.446;2023-07-16T09:32:01;101214.50;;;21.04;57.81
78562;BME280;68963;52.138;5.446;2023-07-16T09:34:34;101211.25;;;21.23;58.81
78562;BME280;68963;52.138;5.446;2023-07-16T09:37:01;101209.78;;;21.55;57.72
78562;BME280;68963;52.138;5.446;2023-07-16T09:39:28;101213.91;;;21.67;56.26
78562;BME280;68963;52.138;5.446;2023-07-16T09:41:55;101213.31;;;21.60;56.47
78562;BME280;68963;52.138;5.446;2023-07-16T09:44:25;101207.25;;;21.70;56.42
78562;BME280;68963;52.138;5.446;2023-07-16T09:46:52;101197.06;;;21.72;56.37
78562;BME280;68963;52.138;5.446;2023-07-16T09:49:18;101214.72;;;21.68;55.77
78562;BME280;68963;52.138;5.446;2023-07-16T09:51:45;101213.59;;;21.64;56.50
78562;BME280;68963;52.138;5.446;2023-07-16T09:54:14;101211.19;;;21.62;56.10
78562;BME280;68963;52.138;5.446;2023-07-16T09:56:48;101227.31;;;21.67;56.63
78562;BME280;68963;52.138;5.446;2023-07-16T09:59:17;101238.50;;;21.86;56.34
78562;BME280;68963;52.138;5.446;2023-07-16T10:01:46;101221.50;;;21.76;56.69
78562;BME280;68963;52.138;5.446;2023-07-16T10:04:14;101223.94;;;21.77;56.13
78562;BME280;68963;52.138;5.446;2023-07-16T10:06:53;101222.06;;;21.78;56.64
78562;BME280;68963;52.138;5.446;2023-07-16T10:09:41;101233.34;;;21.80;56.98
78562;BME280;68963;52.138;5.446;2023-07-16T10:12:15;101230.41;;;21.81;55.96
78562;BME280;68963;52.138;5.446;2023-07-16T10:14:44;101238.44;;;21.76;56.14
78562;BME280;68963;52.138;5.446;2023-07-16T10:17:18;101238.09;;;22.00;56.20
78562;BME280;68963;52.138;5.446;2023-07-16T10:19:56;101240.97;;;22.20;55.66
78562;BME280;68963;52.138;5.446;2023-07-16T10:22:34;101238.66;;;22.66;55.36
78562;BME280;68963;52.138;5.446;2023-07-16T10:25:10;101245.34;;;23.01;53.65
78562;BME280;68963;52.138;5.446;2023-07-16T10:27:49;101249.78;;;22.85;52.98
78562;BME280;68963;52.138;5.446;2023-07-16T10:30:17;101248.41;;;22.40;54.15
78562;BME280;68963;52.138;5.446;2023-07-16T10:32:44;101246.34;;;21.93;54.90
78562;BME280;68963;52.138;5.446;2023-07-16T10:35:11;101255.50;;;21.70;55.89
78562;BME280;68963;52.138;5.446;2023-07-16T10:37:39;101259.19;;;21.64;57.07
78562;BME280;68963;52.138;5.446;2023-07-16T10:40:10;101257.13;;;21.49;57.03
78562;BME280;68963;52.138;5.446;2023-07-16T10:42:40;101262.69;;;21.42;57.04
78562;BME280;68963;52.138;5.446;2023-07-16T10:45:10;101259.63;;;21.56;57.26
78562;BME280;68963;52.138;5.446;2023-07-16T10:47:51;101268.06;;;21.91;56.78
78562;BME280;68963;52.138;5.446;2023-07-16T10:50:19;101268.59;;;22.15;54.98
78562;BME280;68963;52.138;5.446;2023-07-16T10:52:55;101271.47;;;22.36;54.62
78562;BME280;68963;52.138;5.446;2023-07-16T10:55:31;101276.34;;;22.44;53.88
78562;BME280;68963;52.138;5.446;2023-07-16T10:58:06;101275.16;;;22.62;55.20
78562;BME280;68963;52.138;5.446;2023-07-16T11:00:37;101267.78;;;22.79;54.00
78562;BME280;68963;52.138;5.446;2023-07-16T11:03:05;101282.50;;;22.77;53.93
78562;BME280;68963;52.138;5.446;2023-07-16T11:05:32;101280.25;;;22.63;54.19
78562;BME280;68963;52.138;5.446;2023-07-16T11:07:59;101287.28;;;22.70;54.13
78562;BME280;68963;52.138;5.446;2023-07-16T11:10:28;101291.66;;;22.76;54.04
78562;BME280;68963;52.138;5.446;2023-07-16T11:12:55;101288.19;;;22.85;54.17
78562;BME280;68963;52.138;5.446;2023-07-16T11:18:02;101282.31;;;22.88;54.74
78562;BME280;68963;52.138;5.446;2023-07-16T11:20:29;101291.31;;;23.04;54.54
78562;BME280;68963;52.138;5.446;2023-07-16T11:22:59;101291.19;;;22.89;54.70
78562;BME280;68963;52.138;5.446;2023-07-16T11:25:28;101295.03;;;22.61;54.81
78562;BME280;68963;52.138;5.446;2023-07-16T11:27:55;101287.13;;;22.49;55.60
78562;BME280;68963;52.138;5.446;2023-07-16T11:30:25;101291.22;;;22.57;55.32
78562;BME280;68963;52.138;5.446;2023-07-16T11:33:00;101289.66;;;22.61;54.71
78562;BME280;68963;52.138;5.446;2023-07-16T11:35:27;101311.66;;;22.58;53.91
78562;BME280;68963;52.138;5.446;2023-07-16T11:37:54;101308.69;;;22.59;54.35
78562;BME280;68963;52.138;5.446;2023-07-16T11:40:38;101322.72;;;22.66;54.59
78562;BME280;68963;52.138;5.446;2023-07-16T11:43:10;101322.44;;;22.68;54.61
78562;BME280;68963;52.138;5.446;2023-07-16T11:45:38;101321.63;;;22.95;54.82
78562;BME280;68963;52.138;5.446;2023-07-16T11:48:05;101336.22;;;23.09;53.05
78562;BME280;68963;52.138;5.446;2023-07-16T11:50:32;101331.38;;;23.11;52.23
78562;BME280;68963;52.138;5.446;2023-07-16T11:53:03;101316.13;;;23.17;51.45
78562;BME280;68963;52.138;5.446;2023-07-16T11:55:30;101328.28;;;23.29;52.52
78562;BME280;68963;52.138;5.446;2023-07-16T11:57:56;101331.53;;;23.36;53.26
78562;BME280;68963;52.138;5.446;2023-07-16T12:00:25;101336.81;;;23.69;50.37
78562;BME280;68963;52.138;5.446;2023-07-16T12:02:52;101346.19;;;23.66;49.19
78562;BME280;68963;52.138;5.446;2023-07-16T12:05:23;101340.59;;;23.68;48.51
78562;BME280;68963;52.138;5.446;2023-07-16T12:08:14;101341.44;;;23.83;49.25
78562;BME280;68963;52.138;5.446;2023-07-16T12:10:41;101346.72;;;23.63;48.72
78562;BME280;68963;52.138;5.446;2023-07-16T12:13:08;101338.19;;;23.81;48.89
78562;BME280;68963;52.138;5.446;2023-07-16T12:15:34;101326.47;;;24.13;49.02
78562;BME280;68963;52.138;5.446;2023-07-16T12:18:01;101330.03;;;24.39;48.37
78562;BME280;68963;52.138;5.446;2023-07-16T12:20:28;101327.34;;;24.49;47.79
78562;BME280;68963;52.138;5.446;2023-07-16T12:22:55;101338.66;;;24.46;48.83
78562;BME280;68963;52.138;5.446;2023-07-16T12:25:21;101331.38;;;24.67;48.06
78562;BME280;68963;52.138;5.446;2023-07-16T12:27:48;101345.66;;;24.42;47.64
78562;BME280;68963;52.138;5.446;2023-07-16T12:30:17;101347.47;;;24.21;47.60
78562;BME280;68963;52.138;5.446;2023-07-16T12:32:44;101345.47;;;23.81;49.05
78562;BME280;68963;52.138;5.446;2023-07-16T12:35:11;101338.19;;;23.81;50.17
78562;BME280;68963;52.138;5.446;2023-07-16T12:37:38;101341.00;;;24.32;46.87
78562;BME280;68963;52.138;5.446;2023-07-16T12:40:06;101349.28;;;23.95;47.48
78562;BME280;68963;52.138;5.446;2023-07-16T12:42:33;101350.56;;;23.72;49.35
78562;BME280;68963;52.138;5.446;2023-07-16T12:45:01;101360.09;;;24.05;48.25
78562;BME280;68963;52.138;5.446;2023-07-16T12:47:29;101349.69;;;24.60;48.34
78562;BME280;68963;52.138;5.446;2023-07-16T12:49:55;101348.59;;;24.97;46.75
78562;BME280;68963;52.138;5.446;2023-07-16T12:52:22;101356.09;;;25.25;45.25
78562;BME280;68963;52.138;5.446;2023-07-16T12:54:56;101351.44;;;25.57;45.33
78562;BME280;68963;52.138;5.446;2023-07-16T12:57:24;101348.63;;;25.77;43.05
78562;BME280;68963;52.138;5.446;2023-07-16T12:59:51;101354.72;;;25.48;43.24
78562;BME280;68963;52.138;5.446;2023-07-16T13:02:18;101356.94;;;25.11;46.50
78562;BME280;68963;52.138;5.446;2023-07-16T13:04:45;101353.25;;;25.82;44.84